createdAt,value
2019-02-10T00:00:54.568Z,17.17
2019-02-10T00:03:26.310Z,15.50
2019-02-10T00:05:57.993Z,16.20
2019-02-10T00:08:30.061Z,18.07
2019-02-10T00:11:01.668Z,13.03
2019-02-10T00:13:37.367Z,17.77
2019-02-10T00:16:20.524Z,16.43
2019-02-10T00:18:54.333Z,10.68
2019-02-10T00:21:25.648Z,16.60
2019-02-10T00:23:57.406Z,16.67
2019-02-10T00:26:28.662Z,18.50
2019-02-10T00:28:59.936Z,10.10
2019-02-10T00:31:31.753Z,11.30
2019-02-10T00:34:03.094Z,16.43
2019-02-10T00:36:34.402Z,12.47
2019-02-10T00:39:10.203Z,11.33
2019-02-10T00:41:41.956Z,10.90
2019-02-10T00:44:13.319Z,15.93
2019-02-10T00:46:44.654Z,14.73
2019-02-10T00:49:16.707Z,13.00
2019-02-10T00:51:48.040Z,10.17
2019-02-10T00:54:19.413Z,14.97
2019-02-10T00:56:51.101Z,11.90
2019-02-10T00:59:23.228Z,14.70
2019-02-10T01:01:56.428Z,17.45
2019-02-10T01:04:28.276Z,10.40
2019-02-10T01:06:59.629Z,11.05
2019-02-10T01:09:31.603Z,15.30
2019-02-10T01:12:03.460Z,13.48
2019-02-10T01:14:34.757Z,10.60
2019-02-10T01:17:06.475Z,12.25
2019-02-10T01:19:38.538Z,12.03
2019-02-10T01:22:10.193Z,16.50
2019-02-10T01:24:42.207Z,13.83
2019-02-10T01:27:13.951Z,14.70
2019-02-10T01:29:46.041Z,10.97
2019-02-10T01:32:18.132Z,17.27
2019-02-10T01:34:49.798Z,13.40
2019-02-10T01:37:22.067Z,14.00
2019-02-10T01:39:54.379Z,17.03
2019-02-10T01:42:26.023Z,14.47
2019-02-10T01:44:58.168Z,10.38
2019-02-10T01:47:30.013Z,16.83
2019-02-10T01:50:02.178Z,17.00
2019-02-10T01:52:35.038Z,13.80
2019-02-10T01:55:08.049Z,13.32
2019-02-10T01:57:39.365Z,14.53
2019-02-10T02:00:13.537Z,15.63
2019-02-10T02:02:44.978Z,11.27
2019-02-10T02:05:16.977Z,11.80
2019-02-10T02:07:48.873Z,14.60
2019-02-10T02:10:20.195Z,10.63
2019-02-10T02:12:51.510Z,10.63
2019-02-10T02:15:23.550Z,14.37
2019-02-10T02:17:55.683Z,10.17
2019-02-10T02:20:27.375Z,13.43
2019-02-10T02:22:59.022Z,11.30
2019-02-10T02:25:30.427Z,16.03
2019-02-10T02:28:01.793Z,17.57
2019-02-10T02:30:35.277Z,12.63
2019-02-10T02:33:07.007Z,9.67
2019-02-10T02:35:39.217Z,11.50
2019-02-10T02:38:11.168Z,16.77
2019-02-10T02:40:42.709Z,12.60
2019-02-10T02:43:14.209Z,13.13
2019-02-10T02:45:46.689Z,12.40
2019-02-10T02:48:20.806Z,7.37
2019-02-10T02:50:52.101Z,18.37
2019-02-10T02:53:23.545Z,10.90
2019-02-10T02:55:55.918Z,20.47
2019-02-10T02:58:28.234Z,9.97
2019-02-10T03:00:59.871Z,14.57
2019-02-10T03:03:31.266Z,9.53
2019-02-10T03:06:03.008Z,9.83
2019-02-10T03:08:34.576Z,15.27
2019-02-10T03:11:08.333Z,13.10
2019-02-10T03:13:40.008Z,13.43
2019-02-10T03:16:11.602Z,21.07
2019-02-10T03:18:43.067Z,12.60
2019-02-10T03:21:14.317Z,13.88
2019-02-10T03:23:47.596Z,14.10
2019-02-10T03:26:18.954Z,13.80
2019-02-10T03:28:50.312Z,11.63
2019-02-10T03:31:22.294Z,13.00
2019-02-10T03:33:54.503Z,11.47
2019-02-10T03:36:26.112Z,17.47
2019-02-10T03:38:58.411Z,9.28
2019-02-10T03:41:30.090Z,8.13
2019-02-10T03:44:06.676Z,19.13
2019-02-10T03:46:39.591Z,11.80
2019-02-10T03:49:13.648Z,12.75
2019-02-10T03:51:46.397Z,16.03
2019-02-10T03:54:18.855Z,17.97
2019-02-10T03:56:51.649Z,17.30
2019-02-10T03:59:24.069Z,11.53
2019-02-10T04:01:55.823Z,9.83
2019-02-10T04:04:27.981Z,16.37
2019-02-10T04:06:59.333Z,15.63
2019-02-10T04:09:30.855Z,9.37
2019-02-10T04:12:02.786Z,10.43
2019-02-10T04:14:34.389Z,10.33
2019-02-10T04:17:06.671Z,15.47
2019-02-10T04:19:38.651Z,12.90
2019-02-10T04:22:09.958Z,13.37
2019-02-10T04:24:41.356Z,13.03
2019-02-10T04:27:12.707Z,8.53
2019-02-10T04:29:44.003Z,9.33
2019-02-10T04:32:15.687Z,17.17
2019-02-10T04:34:49.088Z,19.07
2019-02-10T04:37:20.380Z,15.53
2019-02-10T04:39:51.726Z,16.53
2019-02-10T04:42:24.121Z,16.17
2019-02-10T04:44:56.044Z,19.97
2019-02-10T04:47:27.675Z,15.57
2019-02-10T04:49:59.053Z,14.70
2019-02-10T04:52:30.670Z,15.93
2019-02-10T04:55:02.285Z,15.93
2019-02-10T04:57:34.342Z,18.20
2019-02-10T05:00:06.837Z,12.67
2019-02-10T05:02:39.107Z,20.03
2019-02-10T05:05:11.226Z,13.47
2019-02-10T05:07:42.830Z,13.60
2019-02-10T05:10:15.070Z,14.50
2019-02-10T05:12:46.461Z,16.87
2019-02-10T05:15:18.092Z,15.73
2019-02-10T05:17:50.069Z,12.87
2019-02-10T05:20:21.808Z,18.20
2019-02-10T05:22:53.405Z,17.40
2019-02-10T05:25:25.080Z,10.53
2019-02-10T05:27:57.122Z,9.98
2019-02-10T05:30:28.890Z,15.13
2019-02-10T05:33:00.514Z,11.67
2019-02-10T05:35:32.854Z,10.88
2019-02-10T05:38:04.717Z,14.03
2019-02-10T05:40:36.791Z,13.90
2019-02-10T05:43:08.722Z,15.17
2019-02-10T05:45:42.003Z,12.87
2019-02-10T05:48:13.573Z,18.20
2019-02-10T05:50:45.231Z,17.80
2019-02-10T05:53:16.929Z,8.53
2019-02-10T05:55:48.541Z,18.43
2019-02-10T05:58:20.760Z,12.40
2019-02-10T06:00:52.092Z,16.50
2019-02-10T06:03:23.388Z,16.10
2019-02-10T06:05:54.779Z,21.25
2019-02-10T06:08:26.109Z,14.90
2019-02-10T06:10:57.700Z,16.83
2019-02-10T06:13:29.386Z,20.33
2019-02-10T06:16:00.712Z,18.53
2019-02-10T06:18:32.091Z,14.13
2019-02-10T06:21:03.490Z,21.57
2019-02-10T06:23:35.135Z,14.83
2019-02-10T06:26:06.784Z,16.97
2019-02-10T06:28:38.831Z,20.03
2019-02-10T06:31:10.299Z,18.90
2019-02-10T06:33:41.947Z,17.07
2019-02-10T06:36:14.322Z,15.23
2019-02-10T06:38:47.650Z,15.47
2019-02-10T06:41:19.267Z,14.67
2019-02-10T06:43:51.390Z,20.53
2019-02-10T06:46:24.049Z,26.00
2019-02-10T06:48:55.938Z,25.53
2019-02-10T06:51:27.390Z,23.57
2019-02-10T06:53:58.958Z,17.80
2019-02-10T06:56:30.367Z,13.85
2019-02-10T06:59:02.355Z,21.00
2019-02-10T07:01:44.907Z,21.00
2019-02-10T07:04:31.059Z,19.17
2019-02-10T07:07:02.374Z,31.70
2019-02-10T07:09:33.967Z,21.23
2019-02-10T07:12:52.163Z,19.97
2019-02-10T07:16:16.544Z,27.37
2019-02-10T07:19:42.076Z,17.97
2019-02-10T07:23:27.476Z,24.50
2019-02-10T07:26:09.883Z,18.90
2019-02-10T07:29:36.238Z,19.77
2019-02-10T07:32:24.882Z,25.90
2019-02-10T07:38:12.498Z,21.23
2019-02-10T07:41:23.043Z,22.27
2019-02-10T07:45:06.047Z,19.90
2019-02-10T07:48:35.743Z,16.07
2019-02-10T07:51:43.116Z,18.17
2019-02-10T07:54:45.405Z,25.53
2019-02-10T07:58:18.601Z,19.03
2019-02-10T08:01:32.385Z,21.10
2019-02-10T08:04:43.529Z,17.57
2019-02-10T08:07:43.099Z,25.93
2019-02-10T08:11:20.735Z,18.57
2019-02-10T08:14:39.042Z,17.47
2019-02-10T08:17:51.723Z,20.92
2019-02-10T08:21:24.383Z,14.33
2019-02-10T08:24:44.396Z,16.13
2019-02-10T08:28:06.587Z,22.48
2019-02-10T08:31:14.665Z,15.03
2019-02-10T08:34:50.677Z,19.20
2019-02-10T08:38:02.267Z,18.80
2019-02-10T08:41:17.169Z,16.10
2019-02-10T08:44:33.893Z,20.17
2019-02-10T08:47:52.951Z,11.90
2019-02-10T08:51:13.998Z,23.20
2019-02-10T08:53:47.703Z,13.63
2019-02-10T08:56:19.330Z,16.63
2019-02-10T08:58:50.782Z,15.90
2019-02-10T09:01:22.381Z,16.53
2019-02-10T09:03:53.689Z,22.17
2019-02-10T09:06:25.509Z,17.37
2019-02-10T09:09:02.463Z,10.47
2019-02-10T09:11:29.939Z,15.03
2019-02-10T09:14:01.268Z,19.47
2019-02-10T09:16:32.597Z,22.47
2019-02-10T09:19:03.888Z,18.48
2019-02-10T09:21:36.169Z,15.75
2019-02-10T09:24:07.829Z,15.10
2019-02-10T09:26:39.125Z,14.50
2019-02-10T09:29:11.510Z,17.10
2019-02-10T09:31:43.351Z,17.33
2019-02-10T09:34:15.036Z,14.50
2019-02-10T09:36:46.378Z,16.63
2019-02-10T09:39:18.094Z,20.27
2019-02-10T09:41:49.703Z,10.37
2019-02-10T09:44:22.982Z,19.97
2019-02-10T09:46:54.624Z,15.40
2019-02-10T09:49:26.075Z,13.07
2019-02-10T09:51:58.107Z,15.13
2019-02-10T09:54:29.885Z,13.83
2019-02-10T09:57:01.168Z,8.70
2019-02-10T09:59:32.546Z,9.93
2019-02-10T10:02:03.845Z,8.63
2019-02-10T10:04:35.125Z,14.20
2019-02-10T10:07:06.469Z,9.05
2019-02-10T10:09:38.160Z,12.57
2019-02-10T10:12:09.732Z,9.85
2019-02-10T10:14:41.437Z,10.83
2019-02-10T10:17:13.081Z,8.90
2019-02-10T10:19:44.446Z,7.50
2019-02-10T10:22:16.124Z,6.37
2019-02-10T10:24:50.475Z,7.87
2019-02-10T10:27:20.409Z,10.18
2019-02-10T10:29:52.091Z,6.83
2019-02-10T10:32:23.809Z,8.70
2019-02-10T10:34:55.773Z,6.70
2019-02-10T10:37:27.733Z,7.80
2019-02-10T10:39:59.713Z,3.35
2019-02-10T10:42:32.240Z,7.00
2019-02-10T10:45:03.660Z,6.10
2019-02-10T10:47:35.362Z,3.93
2019-02-10T10:50:07.606Z,4.60
2019-02-10T10:52:43.694Z,2.73
2019-02-10T10:55:18.971Z,2.67
2019-02-10T10:57:53.188Z,4.45
2019-02-10T11:00:25.225Z,5.00
2019-02-10T11:02:57.331Z,5.97
2019-02-10T11:05:30.535Z,5.33
2019-02-10T11:08:02.004Z,2.33
2019-02-10T11:10:33.897Z,4.60
2019-02-10T11:13:05.624Z,6.03
2019-02-10T11:15:37.254Z,5.93
2019-02-10T11:18:08.649Z,3.07
2019-02-10T11:20:40.254Z,4.20
2019-02-10T11:23:12.214Z,1.40
2019-02-10T11:25:44.182Z,3.17
2019-02-10T11:28:16.273Z,6.35
2019-02-10T11:30:48.083Z,3.97
2019-02-10T11:33:19.403Z,3.47
2019-02-10T11:35:53.559Z,2.57
2019-02-10T11:38:25.048Z,3.33
2019-02-10T11:40:56.673Z,1.97
2019-02-10T11:43:28.734Z,1.80
2019-02-10T11:46:01.032Z,1.90
2019-02-10T11:48:33.516Z,1.23
2019-02-10T11:51:05.839Z,2.40
2019-02-10T11:53:37.394Z,3.13
2019-02-10T11:56:09.211Z,1.40
2019-02-10T11:58:41.050Z,1.33
2019-02-10T12:01:12.801Z,2.03
2019-02-10T12:03:44.718Z,1.67
2019-02-10T12:06:16.379Z,1.77
2019-02-10T12:08:48.435Z,2.40
2019-02-10T12:11:20.531Z,1.57
2019-02-10T12:13:52.174Z,2.03
2019-02-10T12:16:24.123Z,3.80
2019-02-10T12:18:55.455Z,4.10
2019-02-10T12:21:26.741Z,2.40
2019-02-10T12:23:58.446Z,2.60
2019-02-10T12:26:29.902Z,1.77
2019-02-10T12:29:01.221Z,1.50
2019-02-10T12:31:32.965Z,1.10
2019-02-10T12:34:04.369Z,1.10
2019-02-10T12:36:36.117Z,1.20
2019-02-10T12:39:09.394Z,1.30
2019-02-10T12:41:40.802Z,1.33
2019-02-10T12:44:12.574Z,1.23
2019-02-10T12:46:46.099Z,1.80
2019-02-10T12:49:18.100Z,2.40
2019-02-10T12:51:49.796Z,0.50
2019-02-10T12:54:21.924Z,1.43
2019-02-10T12:56:54.178Z,0.87
2019-02-10T12:59:25.880Z,2.07
2019-02-10T13:01:58.228Z,1.73
2019-02-10T13:04:29.540Z,0.70
2019-02-10T13:07:01.124Z,0.97
2019-02-10T13:09:32.831Z,1.23
2019-02-10T13:12:04.138Z,0.60
2019-02-10T13:17:25.664Z,2.40
2019-02-10T13:19:58.420Z,1.30
2019-02-10T13:22:30.144Z,2.10
2019-02-10T13:25:02.145Z,1.20
2019-02-10T13:27:34.137Z,0.97
2019-02-10T13:30:07.401Z,1.17
2019-02-10T13:32:39.096Z,2.10
2019-02-10T13:35:10.858Z,1.10
2019-02-10T13:37:42.230Z,1.93
2019-02-10T13:40:17.289Z,2.63
2019-02-10T13:42:48.665Z,0.93
2019-02-10T13:45:20.297Z,1.33
2019-02-10T13:47:52.146Z,0.63
2019-02-10T13:50:23.525Z,1.33
2019-02-10T13:52:54.959Z,1.40
2019-02-10T13:55:26.687Z,1.47
2019-02-10T13:57:58.046Z,1.60
2019-02-10T14:00:29.428Z,1.83
2019-02-10T14:03:00.764Z,3.17
2019-02-10T14:05:32.116Z,0.80
2019-02-10T14:08:04.017Z,2.00
2019-02-10T14:10:35.658Z,1.60
2019-02-10T14:13:08.901Z,1.62
2019-02-10T14:15:40.495Z,1.33
2019-02-10T14:18:12.129Z,2.43
2019-02-10T14:20:43.561Z,2.30
2019-02-10T14:23:16.050Z,1.10
2019-02-10T14:25:47.428Z,1.20
2019-02-10T14:28:19.344Z,2.20
2019-02-10T14:30:51.244Z,2.37
2019-02-10T14:33:22.559Z,1.37
2019-02-10T14:35:54.467Z,1.47
2019-02-10T14:38:26.152Z,2.70
2019-02-10T14:40:58.129Z,3.83
2019-02-10T14:43:29.424Z,2.53
2019-02-10T14:46:01.109Z,1.40
2019-02-10T14:48:32.844Z,4.70
2019-02-10T14:51:04.441Z,2.77
2019-02-10T14:53:36.411Z,3.83
2019-02-10T14:56:07.750Z,3.33
2019-02-10T14:58:43.087Z,4.53
2019-02-10T15:01:12.316Z,5.43
2019-02-10T15:03:43.631Z,2.37
2019-02-10T15:06:14.945Z,2.87
2019-02-10T15:08:46.231Z,2.37
2019-02-10T15:11:17.918Z,4.97
2019-02-10T15:13:49.203Z,9.13
2019-02-10T15:16:20.475Z,8.25
2019-02-10T15:18:51.858Z,6.92
2019-02-10T15:21:23.844Z,2.37
2019-02-10T15:23:55.155Z,3.30
2019-02-10T15:26:26.648Z,6.53
2019-02-10T15:28:58.120Z,5.27
2019-02-10T15:31:29.387Z,7.13
2019-02-10T15:34:00.773Z,3.40
2019-02-10T15:36:32.113Z,1.87
2019-02-10T15:39:03.870Z,3.27
2019-02-10T15:41:35.553Z,0.90
2019-02-10T15:44:06.850Z,2.40
2019-02-10T15:46:38.146Z,2.90
2019-02-10T15:49:09.608Z,3.80
2019-02-10T15:51:41.214Z,4.63
2019-02-10T15:54:12.875Z,2.63
2019-02-10T15:56:44.548Z,2.30
2019-02-10T15:59:15.843Z,5.00
2019-02-10T16:01:47.748Z,4.17
2019-02-10T16:04:19.749Z,1.57
2019-02-10T16:06:51.763Z,1.05
2019-02-10T16:09:23.089Z,1.40
2019-02-10T16:11:54.437Z,1.17
2019-02-10T16:14:27.589Z,1.30
2019-02-10T16:16:58.889Z,2.80
2019-02-10T16:19:30.489Z,1.93
2019-02-10T16:22:02.100Z,1.50
2019-02-10T16:24:33.392Z,6.30
2019-02-10T16:27:04.715Z,1.27
2019-02-10T16:29:36.122Z,1.90
2019-02-10T16:32:08.818Z,0.97
2019-02-10T16:34:40.111Z,1.70
2019-02-10T16:37:11.487Z,0.70
2019-02-10T16:39:42.929Z,3.10
2019-02-10T16:42:14.844Z,0.70
2019-02-10T16:44:46.473Z,0.83
2019-02-10T16:47:18.477Z,1.07
2019-02-10T16:49:49.878Z,0.80
2019-02-10T16:52:22.036Z,0.70
2019-02-10T16:54:53.413Z,0.83
2019-02-10T16:57:24.751Z,0.90
2019-02-10T16:59:56.047Z,1.70
2019-02-10T17:02:27.647Z,1.63
2019-02-10T17:04:58.990Z,1.10
2019-02-10T17:07:30.398Z,1.77
2019-02-10T17:10:01.995Z,1.87
2019-02-10T17:12:34.076Z,3.17
2019-02-10T17:15:05.975Z,2.20
2019-02-10T17:17:37.240Z,2.80
2019-02-10T17:20:09.708Z,5.50
2019-02-10T17:22:41.094Z,2.90
2019-02-10T17:25:14.689Z,2.33
2019-02-10T17:27:46.145Z,1.80
2019-02-10T17:30:17.663Z,3.00
2019-02-10T17:32:48.976Z,2.40
2019-02-10T17:35:23.859Z,3.33
2019-02-10T17:37:55.595Z,3.47
2019-02-10T17:40:33.505Z,2.83
2019-02-10T17:43:05.287Z,4.57
2019-02-10T17:45:36.992Z,3.08
2019-02-10T17:48:09.024Z,5.20
2019-02-10T17:50:40.747Z,3.13
2019-02-10T17:53:12.056Z,3.80
2019-02-10T17:55:43.774Z,5.03
2019-02-10T17:58:15.098Z,4.03
2019-02-10T18:00:48.661Z,5.03
2019-02-10T18:03:19.965Z,4.70
2019-02-10T18:05:51.568Z,6.33
2019-02-10T18:08:23.118Z,4.65
2019-02-10T18:10:54.529Z,3.73
2019-02-10T18:13:28.178Z,4.03
2019-02-10T18:16:24.694Z,3.60
2019-02-10T18:19:21.622Z,5.63
2019-02-10T18:22:17.651Z,3.67
2019-02-10T18:25:06.248Z,4.87
2019-02-10T18:28:02.580Z,3.50
2019-02-10T18:30:50.008Z,4.53
2019-02-10T18:33:28.845Z,3.10
2019-02-10T18:36:26.496Z,2.93
2019-02-10T18:39:06.989Z,2.22
2019-02-10T18:41:58.276Z,1.87
2019-02-10T18:44:40.500Z,2.85
2019-02-10T18:47:48.965Z,2.67
2019-02-10T18:50:48.009Z,3.47
2019-02-10T18:53:50.661Z,6.80
2019-02-10T18:56:46.574Z,4.30
2019-02-10T18:59:35.250Z,4.73
2019-02-10T19:02:14.971Z,2.83
2019-02-10T19:05:03.279Z,2.53
2019-02-10T19:07:56.191Z,4.40
2019-02-10T19:10:51.796Z,5.30
2019-02-10T19:13:41.963Z,2.77
2019-02-10T19:16:21.820Z,4.00
2019-02-10T19:19:18.781Z,2.80
2019-02-10T19:22:19.645Z,1.65
2019-02-10T19:25:01.853Z,2.47
2019-02-10T19:27:45.305Z,2.17
2019-02-10T19:30:39.177Z,2.00
2019-02-10T19:33:36.392Z,2.45
2019-02-10T19:36:27.491Z,2.33
2019-02-10T19:39:27.157Z,2.73
2019-02-10T19:42:16.041Z,4.13
2019-02-10T19:45:06.536Z,2.47
2019-02-10T19:48:01.276Z,3.03
2019-02-10T19:50:52.080Z,4.23
2019-02-10T19:53:37.801Z,4.40
2019-02-10T19:56:23.951Z,5.22
2019-02-10T19:59:06.333Z,3.83
2019-02-10T20:01:53.058Z,3.47
2019-02-10T20:04:40.934Z,4.28
2019-02-10T20:07:31.477Z,2.13
2019-02-10T20:10:25.248Z,2.53
2019-02-10T20:13:27.631Z,2.03
2019-02-10T20:16:24.131Z,2.10
2019-02-10T20:19:17.141Z,2.05
2019-02-10T20:22:16.718Z,2.35
2019-02-10T20:25:17.534Z,3.20
2019-02-10T20:28:06.743Z,8.50
2019-02-10T20:30:53.783Z,3.00
2019-02-10T20:33:44.939Z,4.93
2019-02-10T20:36:38.269Z,3.80
2019-02-10T20:39:15.291Z,3.57
2019-02-10T20:41:55.362Z,4.33
2019-02-10T20:44:51.462Z,4.07
2019-02-10T20:47:45.155Z,9.15
2019-02-10T20:50:42.211Z,4.50
2019-02-10T20:53:39.007Z,3.43
2019-02-10T20:56:29.343Z,3.40
2019-02-10T20:59:15.317Z,3.90
2019-02-10T21:02:08.443Z,4.07
2019-02-10T21:05:01.777Z,3.50
2019-02-10T21:07:57.762Z,2.60
2019-02-10T21:10:46.403Z,1.87
2019-02-10T21:13:30.367Z,5.20
2019-02-10T21:16:29.823Z,2.70
2019-02-10T21:19:25.838Z,3.20
2019-02-10T21:22:05.460Z,1.80
2019-02-10T21:24:49.574Z,2.20
2019-02-10T21:27:45.661Z,1.60
2019-02-10T21:30:36.326Z,2.23
2019-02-10T21:33:22.827Z,1.53
2019-02-10T21:35:58.888Z,1.20
2019-02-10T21:38:49.593Z,1.50
2019-02-10T21:41:31.585Z,1.66
2019-02-10T21:44:15.767Z,1.77
2019-02-10T21:47:06.355Z,3.60
2019-02-10T21:49:38.212Z,2.40
2019-02-10T21:52:09.590Z,1.77
2019-02-10T21:54:42.260Z,1.60
2019-02-10T21:57:13.583Z,1.77
2019-02-10T21:59:44.950Z,2.43
2019-02-10T22:02:16.911Z,3.00
2019-02-10T22:04:48.598Z,2.23
2019-02-10T22:07:19.951Z,1.73
2019-02-10T22:09:51.230Z,1.62
2019-02-10T22:12:23.023Z,1.53
2019-02-10T22:14:54.344Z,1.90
2019-02-10T22:17:25.920Z,1.90
2019-02-10T22:19:57.268Z,1.30
2019-02-10T22:22:28.965Z,1.40
2019-02-10T22:25:01.277Z,1.13
2019-02-10T22:27:33.882Z,0.77
2019-02-10T22:30:08.559Z,0.50
2019-02-10T22:32:40.243Z,0.85
2019-02-10T22:35:11.595Z,1.07
2019-02-10T22:37:42.912Z,0.80
2019-02-10T22:40:14.272Z,1.10
2019-02-10T22:42:46.135Z,1.40
2019-02-10T22:45:18.032Z,1.03
2019-02-10T22:47:50.075Z,1.07
2019-02-10T22:50:22.136Z,1.07
2019-02-10T22:52:54.049Z,2.93
2019-02-10T22:55:25.414Z,0.93
2019-02-10T22:57:56.854Z,0.77
2019-02-10T23:00:50.185Z,0.80
2019-02-10T23:03:21.784Z,0.97
2019-02-10T23:05:53.067Z,1.27
2019-02-10T23:08:24.706Z,0.80
2019-02-10T23:10:56.350Z,0.57
2019-02-10T23:13:27.682Z,1.13
2019-02-10T23:15:58.927Z,0.23
2019-02-10T23:18:30.743Z,0.70
2019-02-10T23:21:03.530Z,0.70
2019-02-10T23:23:34.825Z,1.77
2019-02-10T23:26:06.318Z,1.00
2019-02-10T23:28:37.598Z,1.20
2019-02-10T23:31:09.156Z,1.73
2019-02-10T23:33:40.545Z,1.77
2019-02-10T23:36:12.806Z,2.10
2019-02-10T23:38:44.281Z,3.00
2019-02-10T23:41:15.606Z,3.90
2019-02-10T23:43:47.753Z,3.87
2019-02-10T23:46:19.376Z,6.00
2019-02-10T23:48:51.038Z,6.07
2019-02-10T23:51:22.309Z,6.57
2019-02-10T23:53:53.920Z,9.70
2019-02-10T23:56:25.370Z,8.53
2019-02-10T23:58:56.643Z,11.33
